Terminal Aerodrome Forecast
Issued by NWS Dallas/Fort Worth, TX

Home | Current Version | Previous Version | Text Only | Print | Product List | Glossary On
Versions: 1 2 3 4 5 6 7 8 9 10 11 12 13 14 15 16 17 18 19 20 21 22 23 24 25 26 27 28
000
FTUS44 KFWD 271135
TAFACT
TAF
KACT 271135Z 2712/2812 11004KT 5SM BR SCT180
      TEMPO 2712/2714 3SM BR
     FM271700 12007KT P6SM VCTS SCT050CB BKN080
     FM280000 11008KT P6SM SCT050 BKN130=

USA.gov is the U.S. government's official web portal to all federal, state and local government web resources and services.